Flight Track Log - Related Links

Times and Time Zones

All times are in EDT time to prevent confusion due to time zone crossing. See the SWA1366 flight status page for this flight to view local times or setup timezone preferences in your user account.

Time Position Orientation Groundspeed Altitude Reporting Facility
EDT Latitude Longitude Course Direction KTS MPH feet Rate Location/Type
Fri 10:52:00 PM 33.6500 -117.8833 320° Northwest 149 171 2,000  Level Southern California TRACON
Fri 10:53:00 PM 33.6000 -117.9000 196° South 168 193 3,600 2,245 Climbing Southern California TRACON
Fri 10:54:19 PM 33.5308 -117.9289 199° South 239 275 7,200 3,234 Climbing Los Angeles Center
Fri 10:55:21 PM 33.4472 -117.9975 214° Southwest 293 337 11,200 3,823 Climbing Los Angeles Center
Fri 10:56:23 PM 33.3778 -118.0836 226° Southwest 354 407 15,100 2,903 Climbing Los Angeles Center
Fri 10:57:00 PM 34.1891 -118.4204 320° Northwest  Level Estimated
Fri 10:57:25 PM 33.3764 -118.1958 269° West 347 399 17,200  Level Los Angeles Center
Fri 10:58:26 PM 33.4253 -118.3022 299° West 366 421 20,300 2,927 Climbing Los Angeles Center
Fri 10:59:28 PM 33.4969 -118.3975 312° West 379 436 23,200 2,806 Climbing Los Angeles Center
Fri 11:00:30 PM 33.5694 -118.4961 311° West 385 443 26,100 2,613 Climbing Los Angeles Center
Fri 11:01:32 PM 33.6461 -118.5981 312° West 401 461 28,600 2,323 Climbing Los Angeles Center
Fri 11:02:34 PM 33.7236 -118.7025 312° West 414 476 30,900 2,293 Climbing Los Angeles Center
Fri 11:03:35 PM 33.8006 -118.8058 312° West 413 475 33,300 2,146 Climbing Los Angeles Center
Fri 11:04:37 PM 33.8778 -118.9103 312° West 415 478 35,300 1,306 Climbing Los Angeles Center
Fri 11:05:39 PM 33.9692 -119.0328 312° West 410 472 36,000 339 Climbing Los Angeles Center
Fri 11:06:41 PM 34.0444 -119.1367 311° West 410 472 36,000  Level Los Angeles Center
Fri 11:07:42 PM 34.1189 -119.2386 311° West 407 468 36,000  Level Los Angeles Center
Fri 11:08:44 PM 34.2017 -119.3339 316° Northwest 409 471 36,000  Level Los Angeles Center
Fri 11:09:46 PM 34.2836 -119.4272 317° Northwest 408 470 36,000  Level Los Angeles Center
Fri 11:10:48 PM 34.3664 -119.5208 317° Northwest 407 468 36,000  Level Los Angeles Center
Fri 11:11:50 PM 34.4508 -119.6183 316° Northwest 417 480 36,000  Level Los Angeles Center
Fri 11:12:51 PM 34.5536 -119.7336 317° Northwest 419 482 36,000  Level Los Angeles Center
Fri 11:13:53 PM 34.6275 -119.8172 317° Northwest 419 482 36,000  Level Los Angeles Center
Fri 11:14:55 PM 34.7306 -119.9344 317° Northwest 422 486 36,000  Level Los Angeles Center
Fri 11:15:57 PM 34.8172 -120.0325 317° Northwest 424 488 36,000  Level Los Angeles Center
Fri 11:16:59 PM 34.8986 -120.1269 316° Northwest 420 483 36,000  Level Los Angeles Center
Fri 11:18:01 PM 34.9819 -120.2233 317° Northwest 419 482 36,000  Level Los Angeles Center
Fri 11:19:02 PM 35.0650 -120.3200 316° Northwest 418 481 36,000  Level Los Angeles Center
Fri 11:20:04 PM 35.1481 -120.4164 317° Northwest 417 480 36,000  Level Los Angeles Center
Fri 11:21:06 PM 35.2464 -120.5322 316° Northwest 414 476 36,000  Level Los Angeles Center
Fri 11:22:08 PM 35.3297 -120.6292 317° Northwest 417 480 36,000  Level Los Angeles Center
Fri 11:23:10 PM 35.4186 -120.7194 320° Northwest 418 481 36,000  Level Los Angeles Center
Fri 11:24:11 PM 35.5122 -120.8039 324° Northwest 419 482 36,000  Level Los Angeles Center
Fri 11:25:13 PM 35.6050 -120.8897 323° Northwest 418 481 36,000  Level Los Angeles Center
Fri 11:26:15 PM 35.7106 -120.9869 323° Northwest 414 476 36,000  Level Los Angeles Center
Fri 11:27:17 PM 35.8033 -121.0736 323° Northwest 417 480 36,000  Level Los Angeles Center
Fri 11:28:18 PM 35.8944 -121.1594 323° Northwest 414 476 36,000  Level Los Angeles Center
Fri 11:29:32 PM 36.0069 -121.2611 324° Northwest 413 475 36,000  Level Oakland Center
Fri 11:30:33 PM 36.0967 -121.3467 322° Northwest 410 472 36,000  Level Oakland Center
Fri 11:31:34 PM 36.1881 -121.4317 323° Northwest 409 471 36,000 -1,279 Level Oakland Center
Fri 11:32:35 PM 36.2775 -121.5172 322° Northwest 407 468 33,400 -3,197 Descending Oakland Center
Fri 11:33:36 PM 36.3883 -121.6183 324° Northwest 411 473 29,500 -3,148 Descending Oakland Center
Fri 11:34:37 PM 36.4750 -121.7047 321° Northwest 402 463 27,000 -2,439 Descending Oakland Center
Fri 11:35:39 PM 36.5667 -121.7833 325° Northwest 384 442 24,500 -2,459 Descending Northern Cal TRACON
Fri 11:36:39 PM 36.6500 -121.8667 321° Northwest 371 427 22,000 -2,450 Descending Northern Cal TRACON
Fri 11:37:39 PM 36.7167 -121.9333 321° Northwest 361 415 19,600 -2,368 Descending Northern Cal TRACON
Fri 11:38:33 PM 36.8000 -121.9833 334° Northwest 352 405 17,500 -2,350 Descending Northern Cal TRACON
Fri 11:39:39 PM 36.9000 -122.0000 352° North 344 396 14,900 -2,286 Descending Northern Cal TRACON
Fri 11:40:39 PM 37.0000 -122.0333 345° North 333 383 12,700 -2,263 Descending Northern Cal TRACON
Fri 11:41:33 PM 37.0833 -122.0500 351° North 326 375 10,600 -1,350 Descending Northern Cal TRACON
Fri 11:42:39 PM 37.1667 -122.0667 351° North 275 316 10,000 -1,119 Descending Northern Cal TRACON
Fri 11:43:47 PM 37.2386 -122.0953 342° North 260 299 8,100 -1,721 Descending Oakland Center
Fri 11:44:48 PM 37.3086 -122.1133 348° North 257 296 6,300 -1,131 Descending Oakland Center
Fri 11:45:49 PM 37.3719 -122.1292 349° North 236 272 5,800 -787 Descending Oakland Center
Fri 11:46:50 PM 37.4239 -122.1450 346° North 203 234 4,700 -934 Descending Oakland Center
Fri 11:47:51 PM 37.4839 -122.1611 348° North 191 220 3,900 -934 Descending Oakland Center
Fri 11:48:52 PM 37.5294 -122.1883 335° Northwest 186 214 2,800 -984 Descending Oakland Center
Fri 11:49:53 PM 37.5622 -122.2364 311° West 184 212 1,900 -787 Descending Oakland Center
Fri 11:50:54 PM 37.5800 -122.2847 295° West 167 192 1,200 -639 Descending Oakland Center
Fri 11:51:55 PM 37.5964 -122.3228 299° West 144 166 600 -492 Descending Oakland Center
Fri 11:52:56 PM 37.6136 -122.3594 301° West 129 148 200 -393 Descending Oakland Center
Fri 11:54:00 PM 37.6167 -122.3667 322° Northwest  Level FlightAware Approximate
Sat 12:01:00 AM 37.6191 -122.3752 322° Northwest  Level Estimated

Login

Don't have an account? Register now (free) for customized features, flight alerts, and more!